sensor_id;sensor_type;location;lat;lon;timestamp;temperature;humidity
64874;HTU21D;51367;45.204;38.576;2024-01-16T00:01:19;2.60;98.43
64874;HTU21D;51367;45.204;38.576;2024-01-16T00:03:46;2.61;98.44
64874;HTU21D;51367;45.204;38.576;2024-01-16T00:06:12;2.66;98.64
64874;HTU21D;51367;45.204;38.576;2024-01-16T00:08:38;2.72;98.64
64874;HTU21D;51367;45.204;38.576;2024-01-16T00:11:04;2.79;98.70
64874;HTU21D;51367;45.204;38.576;2024-01-16T00:13:32;2.85;98.54
64874;HTU21D;51367;45.204;38.576;2024-01-16T00:15:58;2.91;98.43
64874;HTU21D;51367;45.204;38.576;2024-01-16T00:18:24;2.96;98.34
64874;HTU21D;51367;45.204;38.576;2024-01-16T00:20:51;2.95;98.21
64874;HTU21D;51367;45.204;38.576;2024-01-16T00:23:17;2.94;98.18
64874;HTU21D;51367;45.204;38.576;2024-01-16T00:25:42;2.93;98.19
64874;HTU21D;51367;45.204;38.576;2024-01-16T00:28:08;2.95;98.28
64874;HTU21D;51367;45.204;38.576;2024-01-16T00:30:34;2.95;98.33
64874;HTU21D;51367;45.204;38.576;2024-01-16T00:33:00;2.98;98.37
64874;HTU21D;51367;45.204;38.576;2024-01-16T00:35:28;3.01;98.36
64874;HTU21D;51367;45.204;38.576;2024-01-16T00:37:54;3.02;98.39
64874;HTU21D;51367;45.204;38.576;2024-01-16T00:40:20;3.08;98.46
64874;HTU21D;51367;45.204;38.576;2024-01-16T00:42:46;3.13;98.48
64874;HTU21D;51367;45.204;38.576;2024-01-16T00:45:12;3.17;98.38
64874;HTU21D;51367;45.204;38.576;2024-01-16T00:47:38;3.17;98.24
64874;HTU21D;51367;45.204;38.576;2024-01-16T00:50:05;3.16;98.19
64874;HTU21D;51367;45.204;38.576;2024-01-16T00:52:31;3.17;98.25
64874;HTU21D;51367;45.204;38.576;2024-01-16T00:54:57;3.16;98.32
64874;HTU21D;51367;45.204;38.576;2024-01-16T00:57:23;3.16;98.38
64874;HTU21D;51367;45.204;38.576;2024-01-16T00:59:49;3.18;98.43
64874;HTU21D;51367;45.204;38.576;2024-01-16T01:02:15;3.21;98.52
64874;HTU21D;51367;45.204;38.576;2024-01-16T01:04:41;3.27;98.69
64874;HTU21D;51367;45.204;38.576;2024-01-16T01:07:08;3.36;98.62
64874;HTU21D;51367;45.204;38.576;2024-01-16T01:09:34;3.45;98.69
64874;HTU21D;51367;45.204;38.576;2024-01-16T01:12:00;3.56;98.64
64874;HTU21D;51367;45.204;38.576;2024-01-16T01:14:26;3.67;98.59
64874;HTU21D;51367;45.204;38.576;2024-01-16T01:16:54;3.75;98.58
64874;HTU21D;51367;45.204;38.576;2024-01-16T01:19:20;3.87;98.47
64874;HTU21D;51367;45.204;38.576;2024-01-16T01:21:47;3.97;98.39
64874;HTU21D;51367;45.204;38.576;2024-01-16T01:24:13;4.08;98.35
64874;HTU21D;51367;45.204;38.576;2024-01-16T01:26:39;4.20;98.29
64874;HTU21D;51367;45.204;38.576;2024-01-16T01:29:05;4.32;98.06
64874;HTU21D;51367;45.204;38.576;2024-01-16T01:31:31;4.39;97.87
64874;HTU21D;51367;45.204;38.576;2024-01-16T01:33:57;4.48;97.67
64874;HTU21D;51367;45.204;38.576;2024-01-16T01:36:23;4.51;97.58
64874;HTU21D;51367;45.204;38.576;2024-01-16T01:38:49;4.56;97.55
64874;HTU21D;51367;45.204;38.576;2024-01-16T01:41:15;4.61;97.51
64874;HTU21D;51367;45.204;38.576;2024-01-16T01:43:41;4.67;97.39
64874;HTU21D;51367;45.204;38.576;2024-01-16T01:46:14;4.68;97.27
64874;HTU21D;51367;45.204;38.576;2024-01-16T01:48:42;4.71;97.16
64874;HTU21D;51367;45.204;38.576;2024-01-16T01:51:09;4.69;97.16
64874;HTU21D;51367;45.204;38.576;2024-01-16T01:53:36;4.68;97.20
64874;HTU21D;51367;45.204;38.576;2024-01-16T01:56:04;4.69;97.21
64874;HTU21D;51367;45.204;38.576;2024-01-16T01:58:34;4.67;97.14
64874;HTU21D;51367;45.204;38.576;2024-01-16T02:01:01;4.64;97.13
64874;HTU21D;51367;45.204;38.576;2024-01-16T02:03:29;4.59;97.16
64874;HTU21D;51367;45.204;38.576;2024-01-16T02:05:58;4.54;97.26
64874;HTU21D;51367;45.204;38.576;2024-01-16T02:08:26;4.50;97.32
64874;HTU21D;51367;45.204;38.576;2024-01-16T02:10:52;4.50;97.45
64874;HTU21D;51367;45.204;38.576;2024-01-16T02:13:19;4.52;97.53
64874;HTU21D;51367;45.204;38.576;2024-01-16T02:15:49;4.57;97.51
64874;HTU21D;51367;45.204;38.576;2024-01-16T02:18:16;4.60;97.49
64874;HTU21D;51367;45.204;38.576;2024-01-16T02:20:43;4.63;97.41
64874;HTU21D;51367;45.204;38.576;2024-01-16T02:23:10;4.64;97.23
64874;HTU21D;51367;45.204;38.576;2024-01-16T02:25:39;4.64;97.16
64874;HTU21D;51367;45.204;38.576;2024-01-16T02:28:05;4.64;97.04
64874;HTU21D;51367;45.204;38.576;2024-01-16T02:30:31;4.61;97.00
64874;HTU21D;51367;45.204;38.576;2024-01-16T02:32:57;4.60;97.00
64874;HTU21D;51367;45.204;38.576;2024-01-16T02:35:23;4.59;97.00
64874;HTU21D;51367;45.204;38.576;2024-01-16T02:37:50;4.58;96.99
64874;HTU21D;51367;45.204;38.576;2024-01-16T02:40:16;4.53;96.97
64874;HTU21D;51367;45.204;38.576;2024-01-16T02:42:42;4.51;96.93
64874;HTU21D;51367;45.204;38.576;2024-01-16T02:45:08;4.47;96.91
64874;HTU21D;51367;45.204;38.576;2024-01-16T02:47:34;4.43;96.96
64874;HTU21D;51367;45.204;38.576;2024-01-16T02:50:01;4.39;96.95
64874;HTU21D;51367;45.204;38.576;2024-01-16T02:52:27;4.36;96.99
64874;HTU21D;51367;45.204;38.576;2024-01-16T02:54:54;4.32;97.11
64874;HTU21D;51367;45.204;38.576;2024-01-16T02:57:20;4.30;97.26
64874;HTU21D;51367;45.204;38.576;2024-01-16T02:59:46;4.31;97.39
64874;HTU21D;51367;45.204;38.576;2024-01-16T03:02:12;4.32;97.41
64874;HTU21D;51367;45.204;38.576;2024-01-16T03:04:39;4.33;97.35
64874;HTU21D;51367;45.204;38.576;2024-01-16T03:07:05;4.34;97.42
64874;HTU21D;51367;45.204;38.576;2024-01-16T03:09:31;4.36;97.44
64874;HTU21D;51367;45.204;38.576;2024-01-16T03:12:00;4.38;97.36
64874;HTU21D;51367;45.204;38.576;2024-01-16T03:14:26;4.39;97.32
64874;HTU21D;51367;45.204;38.576;2024-01-16T03:16:52;4.38;97.29
64874;HTU21D;51367;45.204;38.576;2024-01-16T03:19:18;4.37;97.36
64874;HTU21D;51367;45.204;38.576;2024-01-16T03:21:44;4.36;97.48
64874;HTU21D;51367;45.204;38.576;2024-01-16T03:24:10;4.38;97.53
64874;HTU21D;51367;45.204;38.576;2024-01-16T03:26:36;4.45;97.63
64874;HTU21D;51367;45.204;38.576;2024-01-16T03:29:03;4.50;97.52
64874;HTU21D;51367;45.204;38.576;2024-01-16T03:31:30;4.52;97.44
64874;HTU21D;51367;45.204;38.576;2024-01-16T03:33:56;4.57;97.45
64874;HTU21D;51367;45.204;38.576;2024-01-16T03:36:22;4.63;97.50
64874;HTU21D;51367;45.204;38.576;2024-01-16T03:38:48;4.69;97.47
64874;HTU21D;51367;45.204;38.576;2024-01-16T03:41:15;4.78;97.37
64874;HTU21D;51367;45.204;38.576;2024-01-16T03:43:41;4.87;97.29
64874;HTU21D;51367;45.204;38.576;2024-01-16T03:46:07;4.96;97.22
64874;HTU21D;51367;45.204;38.576;2024-01-16T03:48:33;5.06;97.15
64874;HTU21D;51367;45.204;38.576;2024-01-16T03:50:59;5.12;96.96
64874;HTU21D;51367;45.204;38.576;2024-01-16T03:53:25;5.18;96.83
64874;HTU21D;51367;45.204;38.576;2024-01-16T03:55:51;5.21;96.83
64874;HTU21D;51367;45.204;38.576;2024-01-16T03:58:17;5.25;96.80
64874;HTU21D;51367;45.204;38.576;2024-01-16T04:00:44;5.28;96.71
64874;HTU21D;51367;45.204;38.576;2024-01-16T04:03:10;5.30;96.65
64874;HTU21D;51367;45.204;38.576;2024-01-16T04:05:36;5.27;96.59
64874;HTU21D;51367;45.204;38.576;2024-01-16T04:08:03;5.25;96.62
64874;HTU21D;51367;45.204;38.576;2024-01-16T04:10:29;5.25;96.72
64874;HTU21D;51367;45.204;38.576;2024-01-16T04:12:55;5.23;96.78
64874;HTU21D;51367;45.204;38.576;2024-01-16T04:15:21;5.21;96.87
64874;HTU21D;51367;45.204;38.576;2024-01-16T04:17:47;5.19;96.84
64874;HTU21D;51367;45.204;38.576;2024-01-16T04:20:14;5.15;96.98
64874;HTU21D;51367;45.204;38.576;2024-01-16T04:22:40;5.13;97.00
64874;HTU21D;51367;45.204;38.576;2024-01-16T04:25:06;5.12;97.03
64874;HTU21D;51367;45.204;38.576;2024-01-16T04:27:32;5.10;97.07
64874;HTU21D;51367;45.204;38.576;2024-01-16T04:29:59;5.08;97.12
64874;HTU21D;51367;45.204;38.576;2024-01-16T04:32:25;5.06;97.07
64874;HTU21D;51367;45.204;38.576;2024-01-16T04:34:51;5.04;97.16
64874;HTU21D;51367;45.204;38.576;2024-01-16T04:37:17;5.03;97.21
64874;HTU21D;51367;45.204;38.576;2024-01-16T04:39:43;5.02;97.26
64874;HTU21D;51367;45.204;38.576;2024-01-16T04:42:09;5.01;97.26
64874;HTU21D;51367;45.204;38.576;2024-01-16T04:44:35;5.00;97.17
64874;HTU21D;51367;45.204;38.576;2024-01-16T04:47:01;4.96;97.18
64874;HTU21D;51367;45.204;38.576;2024-01-16T04:49:27;4.92;97.22
64874;HTU21D;51367;45.204;38.576;2024-01-16T04:51:53;4.91;97.28
64874;HTU21D;51367;45.204;38.576;2024-01-16T04:54:19;4.88;97.32
64874;HTU21D;51367;45.204;38.576;2024-01-16T04:56:45;4.88;97.29
64874;HTU21D;51367;45.204;38.576;2024-01-16T04:59:11;4.87;97.29
64874;HTU21D;51367;45.204;38.576;2024-01-16T05:01:37;4.87;97.29
64874;HTU21D;51367;45.204;38.576;2024-01-16T05:04:03;4.86;97.26
64874;HTU21D;51367;45.204;38.576;2024-01-16T05:06:30;4.83;97.29
64874;HTU21D;51367;45.204;38.576;2024-01-16T05:08:56;4.84;97.27
64874;HTU21D;51367;45.204;38.576;2024-01-16T05:11:22;4.82;97.25
64874;HTU21D;51367;45.204;38.576;2024-01-16T05:13:48;4.81;97.29
64874;HTU21D;51367;45.204;38.576;2024-01-16T05:16:14;4.86;97.43
64874;HTU21D;51367;45.204;38.576;2024-01-16T05:18:43;4.94;97.61
64874;HTU21D;51367;45.204;38.576;2024-01-16T05:21:10;5.04;97.60
64874;HTU21D;51367;45.204;38.576;2024-01-16T05:23:36;5.16;97.53
64874;HTU21D;51367;45.204;38.576;2024-01-16T05:26:03;5.26;97.35
64874;HTU21D;51367;45.204;38.576;2024-01-16T05:28:29;5.34;97.09
64874;HTU21D;51367;45.204;38.576;2024-01-16T05:30:55;5.37;96.90
64874;HTU21D;51367;45.204;38.576;2024-01-16T05:33:21;5.38;96.84
64874;HTU21D;51367;45.204;38.576;2024-01-16T05:35:47;5.41;96.86
64874;HTU21D;51367;45.204;38.576;2024-01-16T05:38:13;5.42;96.85
64874;HTU21D;51367;45.204;38.576;2024-01-16T05:40:39;5.47;96.88
64874;HTU21D;51367;45.204;38.576;2024-01-16T05:43:05;5.49;96.93
64874;HTU21D;51367;45.204;38.576;2024-01-16T05:45:31;5.55;97.02
64874;HTU21D;51367;45.204;38.576;2024-01-16T05:47:57;5.61;97.06
64874;HTU21D;51367;45.204;38.576;2024-01-16T05:50:23;5.67;97.07
64874;HTU21D;51367;45.204;38.576;2024-01-16T05:52:49;5.75;97.03
64874;HTU21D;51367;45.204;38.576;2024-01-16T05:55:15;5.84;96.92
64874;HTU21D;51367;45.204;38.576;2024-01-16T05:57:41;5.90;96.81
64874;HTU21D;51367;45.204;38.576;2024-01-16T06:00:10;5.96;96.76
64874;HTU21D;51367;45.204;38.576;2024-01-16T06:02:36;6.04;96.76
64874;HTU21D;51367;45.204;38.576;2024-01-16T06:05:02;6.15;96.80
64874;HTU21D;51367;45.204;38.576;2024-01-16T06:07:28;6.25;96.84
64874;HTU21D;51367;45.204;38.576;2024-01-16T06:09:54;6.39;97.19
64874;HTU21D;51367;45.204;38.576;2024-01-16T06:12:20;6.63;97.84
64874;HTU21D;51367;45.204;38.576;2024-01-16T06:14:46;6.85;97.94
64874;HTU21D;51367;45.204;38.576;2024-01-16T06:17:12;7.09;97.85
64874;HTU21D;51367;45.204;38.576;2024-01-16T06:19:38;7.27;97.50
64874;HTU21D;51367;45.204;38.576;2024-01-16T06:22:05;7.35;97.08
64874;HTU21D;51367;45.204;38.576;2024-01-16T06:24:31;7.43;96.75
64874;HTU21D;51367;45.204;38.576;2024-01-16T06:27:05;7.46;96.55
64874;HTU21D;51367;45.204;38.576;2024-01-16T06:29:34;7.48;96.49
64874;HTU21D;51367;45.204;38.576;2024-01-16T06:32:00;7.56;96.59
64874;HTU21D;51367;45.204;38.576;2024-01-16T06:34:29;7.64;96.63
64874;HTU21D;51367;45.204;38.576;2024-01-16T06:36:55;7.78;96.83
64874;HTU21D;51367;45.204;38.576;2024-01-16T06:39:21;7.90;96.91
64874;HTU21D;51367;45.204;38.576;2024-01-16T06:41:47;8.02;96.84
64874;HTU21D;51367;45.204;38.576;2024-01-16T06:44:13;8.11;96.71
64874;HTU21D;51367;45.204;38.576;2024-01-16T06:46:39;8.19;96.56
64874;HTU21D;51367;45.204;38.576;2024-01-16T06:49:05;8.27;96.46
64874;HTU21D;51367;45.204;38.576;2024-01-16T06:51:32;8.34;96.23
64874;HTU21D;51367;45.204;38.576;2024-01-16T06:53:58;8.38;95.90
64874;HTU21D;51367;45.204;38.576;2024-01-16T06:56:24;8.43;95.65
64874;HTU21D;51367;45.204;38.576;2024-01-16T06:58:50;8.48;95.40
64874;HTU21D;51367;45.204;38.576;2024-01-16T07:01:16;8.58;95.31
64874;HTU21D;51367;45.204;38.576;2024-01-16T07:03:42;8.72;95.26
64874;HTU21D;51367;45.204;38.576;2024-01-16T07:06:08;8.87;95.09
64874;HTU21D;51367;45.204;38.576;2024-01-16T07:08:34;9.00;94.58
64874;HTU21D;51367;45.204;38.576;2024-01-16T07:11:01;9.10;94.09
64874;HTU21D;51367;45.204;38.576;2024-01-16T07:13:27;9.20;93.65
64874;HTU21D;51367;45.204;38.576;2024-01-16T07:15:53;9.30;93.32
64874;HTU21D;51367;45.204;38.576;2024-01-16T07:18:19;9.38;92.96
64874;HTU21D;51367;45.204;38.576;2024-01-16T07:20:45;9.48;92.57
64874;HTU21D;51367;45.204;38.576;2024-01-16T07:23:12;9.55;92.29
64874;HTU21D;51367;45.204;38.576;2024-01-16T07:25:38;9.63;92.06
64874;HTU21D;51367;45.204;38.576;2024-01-16T07:28:05;9.74;91.75
64874;HTU21D;51367;45.204;38.576;2024-01-16T07:30:31;9.82;91.54
64874;HTU21D;51367;45.204;38.576;2024-01-16T07:32:57;9.92;91.34
64874;HTU21D;51367;45.204;38.576;2024-01-16T07:35:23;10.00;91.25
64874;HTU21D;51367;45.204;38.576;2024-01-16T07:37:49;10.12;91.24
64874;HTU21D;51367;45.204;38.576;2024-01-16T07:40:16;10.24;90.92
64874;HTU21D;51367;45.204;38.576;2024-01-16T07:42:42;10.34;90.65
64874;HTU21D;51367;45.204;38.576;2024-01-16T07:45:09;10.43;90.24
64874;HTU21D;51367;45.204;38.576;2024-01-16T07:47:35;10.51;89.98
64874;HTU21D;51367;45.204;38.576;2024-01-16T07:50:02;10.52;89.73
64874;HTU21D;51367;45.204;38.576;2024-01-16T07:52:28;10.54;89.57
64874;HTU21D;51367;45.204;38.576;2024-01-16T07:54:54;10.55;89.26
64874;HTU21D;51367;45.204;38.576;2024-01-16T07:57:20;10.56;89.04
64874;HTU21D;51367;45.204;38.576;2024-01-16T07:59:46;10.57;88.80
64874;HTU21D;51367;45.204;38.576;2024-01-16T08:02:13;10.62;88.58
64874;HTU21D;51367;45.204;38.576;2024-01-16T08:04:38;10.66;88.41
64874;HTU21D;51367;45.204;38.576;2024-01-16T08:07:04;10.68;88.41
64874;HTU21D;51367;45.204;38.576;2024-01-16T08:09:30;10.69;88.43
64874;HTU21D;51367;45.204;38.576;2024-01-16T08:11:56;10.71;88.37
64874;HTU21D;51367;45.204;38.576;2024-01-16T08:14:23;10.72;88.12
64874;HTU21D;51367;45.204;38.576;2024-01-16T08:16:49;10.74;88.17
64874;HTU21D;51367;45.204;38.576;2024-01-16T08:19:15;10.75;88.06
64874;HTU21D;51367;45.204;38.576;2024-01-16T08:21:41;10.77;88.14
64874;HTU21D;51367;45.204;38.576;2024-01-16T08:24:07;10.79;88.09
64874;HTU21D;51367;45.204;38.576;2024-01-16T08:26:33;10.81;88.17
64874;HTU21D;51367;45.204;38.576;2024-01-16T08:28:59;10.84;88.19
64874;HTU21D;51367;45.204;38.576;2024-01-16T08:31:26;10.86;88.18
64874;HTU21D;51367;45.204;38.576;2024-01-16T08:33:52;10.88;88.21
64874;HTU21D;51367;45.204;38.576;2024-01-16T08:36:21;10.93;88.16
64874;HTU21D;51367;45.204;38.576;2024-01-16T08:38:47;10.98;88.06
64874;HTU21D;51367;45.204;38.576;2024-01-16T08:41:13;11.05;87.91
64874;HTU21D;51367;45.204;38.576;2024-01-16T08:43:40;11.14;87.83
64874;HTU21D;51367;45.204;38.576;2024-01-16T08:46:06;11.28;87.27
64874;HTU21D;51367;45.204;38.576;2024-01-16T08:48:32;11.47;87.07
64874;HTU21D;51367;45.204;38.576;2024-01-16T08:50:58;11.66;86.74
64874;HTU21D;51367;45.204;38.576;2024-01-16T08:53:25;11.79;86.31
64874;HTU21D;51367;45.204;38.576;2024-01-16T08:55:51;11.91;85.80
64874;HTU21D;51367;45.204;38.576;2024-01-16T08:58:17;12.00;85.07
64874;HTU21D;51367;45.204;38.576;2024-01-16T09:00:43;12.05;84.91
64874;HTU21D;51367;45.204;38.576;2024-01-16T09:03:11;12.08;84.38
64874;HTU21D;51367;45.204;38.576;2024-01-16T09:05:37;12.10;83.87
64874;HTU21D;51367;45.204;38.576;2024-01-16T09:08:04;12.11;83.89
64874;HTU21D;51367;45.204;38.576;2024-01-16T09:10:31;12.13;84.00
64874;HTU21D;51367;45.204;38.576;2024-01-16T09:12:57;12.15;84.05
64874;HTU21D;51367;45.204;38.576;2024-01-16T09:15:23;12.16;83.94
64874;HTU21D;51367;45.204;38.576;2024-01-16T09:17:49;12.17;83.94
64874;HTU21D;51367;45.204;38.576;2024-01-16T09:20:16;12.20;83.97
64874;HTU21D;51367;45.204;38.576;2024-01-16T09:22:43;12.26;83.77
64874;HTU21D;51367;45.204;38.576;2024-01-16T09:25:09;12.30;83.26
64874;HTU21D;51367;45.204;38.576;2024-01-16T09:27:35;12.32;83.01
64874;HTU21D;51367;45.204;38.576;2024-01-16T09:30:01;12.32;82.79
64874;HTU21D;51367;45.204;38.576;2024-01-16T09:32:27;12.32;82.40
64874;HTU21D;51367;45.204;38.576;2024-01-16T09:34:53;12.33;82.45
64874;HTU21D;51367;45.204;38.576;2024-01-16T09:37:19;12.33;82.46
64874;HTU21D;51367;45.204;38.576;2024-01-16T09:39:46;12.36;82.14
64874;HTU21D;51367;45.204;38.576;2024-01-16T09:42:12;12.35;81.84
64874;HTU21D;51367;45.204;38.576;2024-01-16T09:44:39;12.35;81.97
64874;HTU21D;51367;45.204;38.576;2024-01-16T09:47:06;12.36;82.13
64874;HTU21D;51367;45.204;38.576;2024-01-16T09:49:34;12.34;82.00
64874;HTU21D;51367;45.204;38.576;2024-01-16T09:52:00;12.37;81.79
64874;HTU21D;51367;45.204;38.576;2024-01-16T09:54:27;12.40;81.82
64874;HTU21D;51367;45.204;38.576;2024-01-16T09:56:54;12.42;81.57
64874;HTU21D;51367;45.204;38.576;2024-01-16T09:59:23;12.45;81.26
64874;HTU21D;51367;45.204;38.576;2024-01-16T10:01:52;12.48;80.33
64874;HTU21D;51367;45.204;38.576;2024-01-16T10:04:20;12.50;79.91
64874;HTU21D;51367;45.204;38.576;2024-01-16T10:06:48;12.51;79.30
64874;HTU21D;51367;45.204;38.576;2024-01-16T10:09:15;12.55;77.92
64874;HTU21D;51367;45.204;38.576;2024-01-16T10:11:42;12.59;77.85
64874;HTU21D;51367;45.204;38.576;2024-01-16T10:14:09;12.62;77.34
64874;HTU21D;51367;45.204;38.576;2024-01-16T10:16:58;12.64;76.74
64874;HTU21D;51367;45.204;38.576;2024-01-16T10:19:27;12.66;76.31
64874;HTU21D;51367;45.204;38.576;2024-01-16T10:22:04;12.67;76.51
64874;HTU21D;51367;45.204;38.576;2024-01-16T10:24:30;12.70;76.79
64874;HTU21D;51367;45.204;38.576;2024-01-16T10:27:00;12.69;76.73
64874;HTU21D;51367;45.204;38.576;2024-01-16T10:29:28;12.67;76.66
64874;HTU21D;51367;45.204;38.576;2024-01-16T10:31:55;12.67;76.50
64874;HTU21D;51367;45.204;38.576;2024-01-16T10:34:22;12.67;76.19
64874;HTU21D;51367;45.204;38.576;2024-01-16T10:36:51;12.70;76.47
64874;HTU21D;51367;45.204;38.576;2024-01-16T10:39:18;12.72;76.83
64874;HTU21D;51367;45.204;38.576;2024-01-16T10:41:57;12.72;77.03
64874;HTU21D;51367;45.204;38.576;2024-01-16T10:44:23;12.71;77.03
64874;HTU21D;51367;45.204;38.576;2024-01-16T10:46:49;12.69;76.92
64874;HTU21D;51367;45.204;38.576;2024-01-16T10:49:16;12.69;76.08
64874;HTU21D;51367;45.204;38.576;2024-01-16T10:51:43;12.66;75.57
64874;HTU21D;51367;45.204;38.576;2024-01-16T10:54:13;12.69;75.14
64874;HTU21D;51367;45.204;38.576;2024-01-16T10:56:45;12.66;75.55
64874;HTU21D;51367;45.204;38.576;2024-01-16T10:59:34;12.65;75.73
64874;HTU21D;51367;45.204;38.576;2024-01-16T11:02:04;12.62;75.99
64874;HTU21D;51367;45.204;38.576;2024-01-16T11:04:42;12.57;76.07
64874;HTU21D;51367;45.204;38.576;2024-01-16T11:07:09;12.52;76.12
64874;HTU21D;51367;45.204;38.576;2024-01-16T11:09:35;12.48;76.70
64874;HTU21D;51367;45.204;38.576;2024-01-16T11:12:03;12.45;76.98
64874;HTU21D;51367;45.204;38.576;2024-01-16T11:14:30;12.44;77.05
64874;HTU21D;51367;45.204;38.576;2024-01-16T11:16:58;12.44;77.39
64874;HTU21D;51367;45.204;38.576;2024-01-16T11:19:27;12.43;77.60
64874;HTU21D;51367;45.204;38.576;2024-01-16T11:21:53;12.38;77.78
64874;HTU21D;51367;45.204;38.576;2024-01-16T11:24:19;12.34;78.06
64874;HTU21D;51367;45.204;38.576;2024-01-16T11:26:46;12.29;78.33
64874;HTU21D;51367;45.204;38.576;2024-01-16T11:29:35;12.23;78.66
64874;HTU21D;51367;45.204;38.576;2024-01-16T11:32:02;12.17;78.85
64874;HTU21D;51367;45.204;38.576;2024-01-16T11:37:08;11.99;79.49
64874;HTU21D;51367;45.204;38.576;2024-01-16T11:39:35;11.91;79.81
64874;HTU21D;51367;45.204;38.576;2024-01-16T11:42:01;11.84;80.13
64874;HTU21D;51367;45.204;38.576;2024-01-16T11:44:48;11.78;80.48
64874;HTU21D;51367;45.204;38.576;2024-01-16T11:47:17;11.73;80.88
64874;HTU21D;51367;45.204;38.576;2024-01-16T11:49:45;11.67;81.14
64874;HTU21D;51367;45.204;38.576;2024-01-16T11:52:11;11.63;81.60
64874;HTU21D;51367;45.204;38.576;2024-01-16T11:54:42;11.57;81.91
64874;HTU21D;51367;45.204;38.576;2024-01-16T11:57:32;11.51;82.48
64874;HTU21D;51367;45.204;38.576;2024-01-16T12:00:03;11.43;82.71
64874;HTU21D;51367;45.204;38.576;2024-01-16T12:02:52;11.32;83.27
64874;HTU21D;51367;45.204;38.576;2024-01-16T12:05:19;11.24;83.71
64874;HTU21D;51367;45.204;38.576;2024-01-16T12:07:54;11.14;84.27
64874;HTU21D;51367;45.204;38.576;2024-01-16T12:10:24;11.05;84.71
64874;HTU21D;51367;45.204;38.576;2024-01-16T12:12:56;10.98;85.20
64874;HTU21D;51367;45.204;38.576;2024-01-16T12:15:23;10.92;85.49
64874;HTU21D;51367;45.204;38.576;2024-01-16T12:20:22;10.81;86.61
64874;HTU21D;51367;45.204;38.576;2024-01-16T12:23:03;10.77;87.36
64874;HTU21D;51367;45.204;38.576;2024-01-16T12:25:34;10.74;87.82
64874;HTU21D;51367;45.204;38.576;2024-01-16T12:28:05;10.71;88.08
64874;HTU21D;51367;45.204;38.576;2024-01-16T12:30:37;10.67;88.35
64874;HTU21D;51367;45.204;38.576;2024-01-16T12:33:04;10.62;88.54
64874;HTU21D;51367;45.204;38.576;2024-01-16T12:35:38;10.57;88.73
64874;HTU21D;51367;45.204;38.576;2024-01-16T12:38:06;10.55;89.08
64874;HTU21D;51367;45.204;38.576;2024-01-16T12:40:56;10.56;89.59
64874;HTU21D;51367;45.204;38.576;2024-01-16T12:43:21;10.57;89.77
64874;HTU21D;51367;45.204;38.576;2024-01-16T12:45:55;10.53;90.12
64874;HTU21D;51367;45.204;38.576;2024-01-16T12:48:27;10.49;90.18
64874;HTU21D;51367;45.204;38.576;2024-01-16T12:51:00;10.45;90.52
64874;HTU21D;51367;45.204;38.576;2024-01-16T12:53:28;10.41;90.72
64874;HTU21D;51367;45.204;38.576;2024-01-16T12:55:58;10.38;90.84
64874;HTU21D;51367;45.204;38.576;2024-01-16T12:58:35;10.33;91.15
64874;HTU21D;51367;45.204;38.576;2024-01-16T13:01:25;10.28;91.51
64874;HTU21D;51367;45.204;38.576;2024-01-16T13:03:52;10.27;91.55
64874;HTU21D;51367;45.204;38.576;2024-01-16T13:06:20;10.26;92.07
64874;HTU21D;51367;45.204;38.576;2024-01-16T13:08:49;10.23;92.15
64874;HTU21D;51367;45.204;38.576;2024-01-16T13:11:16;10.22;92.23
64874;HTU21D;51367;45.204;38.576;2024-01-16T13:13:49;10.19;92.50
64874;HTU21D;51367;45.204;38.576;2024-01-16T13:16:29;10.16;92.64
64874;HTU21D;51367;45.204;38.576;2024-01-16T13:19:01;10.14;92.77
64874;HTU21D;51367;45.204;38.576;2024-01-16T13:21:29;10.11;93.05
64874;HTU21D;51367;45.204;38.576;2024-01-16T13:23:55;10.09;93.17
64874;HTU21D;51367;45.204;38.576;2024-01-16T13:26:22;10.07;93.50
64874;HTU21D;51367;45.204;38.576;2024-01-16T13:28:48;10.05;93.62
64874;HTU21D;51367;45.204;38.576;2024-01-16T13:31:14;10.01;93.77
64874;HTU21D;51367;45.204;38.576;2024-01-16T13:33:43;10.01;93.91
64874;HTU21D;51367;45.204;38.576;2024-01-16T13:36:09;9.98;94.01
64874;HTU21D;51367;45.204;38.576;2024-01-16T13:38:35;9.96;94.32
64874;HTU21D;51367;45.204;38.576;2024-01-16T13:41:01;9.94;94.47
64874;HTU21D;51367;45.204;38.576;2024-01-16T13:43:28;9.92;94.67
64874;HTU21D;51367;45.204;38.576;2024-01-16T13:45:54;9.91;94.80
64874;HTU21D;51367;45.204;38.576;2024-01-16T13:48:21;9.91;94.98
64874;HTU21D;51367;45.204;38.576;2024-01-16T13:50:47;9.91;95.01
64874;HTU21D;51367;45.204;38.576;2024-01-16T13:53:13;9.89;95.09
64874;HTU21D;51367;45.204;38.576;2024-01-16T13:55:40;9.88;95.20
64874;HTU21D;51367;45.204;38.576;2024-01-16T13:58:07;9.84;95.49
64874;HTU21D;51367;45.204;38.576;2024-01-16T14:00:34;9.83;95.49
64874;HTU21D;51367;45.204;38.576;2024-01-16T14:03:00;9.82;95.52
64874;HTU21D;51367;45.204;38.576;2024-01-16T14:05:26;9.80;95.63
64874;HTU21D;51367;45.204;38.576;2024-01-16T14:07:52;9.78;95.73
64874;HTU21D;51367;45.204;38.576;2024-01-16T14:10:19;9.79;95.97
64874;HTU21D;51367;45.204;38.576;2024-01-16T14:12:47;9.78;96.05
64874;HTU21D;51367;45.204;38.576;2024-01-16T14:15:15;9.76;96.13
64874;HTU21D;51367;45.204;38.576;2024-01-16T14:17:50;9.74;96.37
64874;HTU21D;51367;45.204;38.576;2024-01-16T14:20:18;9.74;96.39
64874;HTU21D;51367;45.204;38.576;2024-01-16T14:22:48;9.72;96.53
64874;HTU21D;51367;45.204;38.576;2024-01-16T14:25:14;9.70;96.62
64874;HTU21D;51367;45.204;38.576;2024-01-16T14:27:54;9.68;96.71
64874;HTU21D;51367;45.204;38.576;2024-01-16T14:30:21;9.67;96.93
64874;HTU21D;51367;45.204;38.576;2024-01-16T14:32:47;9.66;97.05
64874;HTU21D;51367;45.204;38.576;2024-01-16T14:35:14;9.64;97.10
64874;HTU21D;51367;45.204;38.576;2024-01-16T14:37:43;9.61;97.20
64874;HTU21D;51367;45.204;38.576;2024-01-16T14:40:11;9.59;97.33
64874;HTU21D;51367;45.204;38.576;2024-01-16T14:42:49;9.57;97.45
64874;HTU21D;51367;45.204;38.576;2024-01-16T14:45:25;9.55;97.53
64874;HTU21D;51367;45.204;38.576;2024-01-16T14:47:52;9.53;97.63
64874;HTU21D;51367;45.204;38.576;2024-01-16T14:50:20;9.52;97.79
64874;HTU21D;51367;45.204;38.576;2024-01-16T14:52:51;9.51;97.95
64874;HTU21D;51367;45.204;38.576;2024-01-16T14:55:18;9.52;97.96
64874;HTU21D;51367;45.204;38.576;2024-01-16T14:57:46;9.51;98.09
64874;HTU21D;51367;45.204;38.576;2024-01-16T15:00:17;9.49;98.14
64874;HTU21D;51367;45.204;38.576;2024-01-16T15:02:50;9.49;98.19
64874;HTU21D;51367;45.204;38.576;2024-01-16T15:05:17;9.49;98.20
64874;HTU21D;51367;45.204;38.576;2024-01-16T15:07:45;9.49;98.27
64874;HTU21D;51367;45.204;38.576;2024-01-16T15:10:12;9.48;98.47
64874;HTU21D;51367;45.204;38.576;2024-01-16T15:12:39;9.48;98.55
64874;HTU21D;51367;45.204;38.576;2024-01-16T15:15:07;9.49;98.69
64874;HTU21D;51367;45.204;38.576;2024-01-16T15:17:33;9.47;98.77